sensor_id;sensor_type;location;lat;lon;timestamp;pressure;altitude;pressure_sealevel;temperature;humidity
34586;BME280;20816;50.950;11.108;2024-01-25T00:00:20;99090.44;;;7.55;85.71
34586;BME280;20816;50.950;11.108;2024-01-25T00:02:46;99091.31;;;7.59;85.91
34586;BME280;20816;50.950;11.108;2024-01-25T00:05:13;99085.22;;;7.66;85.53
34586;BME280;20816;50.950;11.108;2024-01-25T00:07:48;99092.19;;;7.67;85.66
34586;BME280;20816;50.950;11.108;2024-01-25T00:10:18;99090.41;;;7.65;86.60
34586;BME280;20816;50.950;11.108;2024-01-25T00:12:46;99090.44;;;7.62;86.88
34586;BME280;20816;50.950;11.108;2024-01-25T00:15:13;99096.56;;;7.57;86.73
34586;BME280;20816;50.950;11.108;2024-01-25T00:17:39;99096.53;;;7.68;86.28
34586;BME280;20816;50.950;11.108;2024-01-25T00:20:09;99094.81;;;7.66;86.51
34586;BME280;20816;50.950;11.108;2024-01-25T00:22:36;99095.69;;;7.54;87.68
34586;BME280;20816;50.950;11.108;2024-01-25T00:25:05;99090.44;;;7.55;87.11
34586;BME280;20816;50.950;11.108;2024-01-25T00:27:32;99091.28;;;7.64;87.12
34586;BME280;20816;50.950;11.108;2024-01-25T00:29:59;99104.41;;;7.61;87.35
34586;BME280;20816;50.950;11.108;2024-01-25T00:32:25;99109.66;;;7.57;86.94
34586;BME280;20816;50.950;11.108;2024-01-25T00:34:52;99106.13;;;7.55;87.72
34586;BME280;20816;50.950;11.108;2024-01-25T00:37:19;99101.78;;;7.51;87.38
34586;BME280;20816;50.950;11.108;2024-01-25T00:39:47;99103.56;;;7.49;87.27
34586;BME280;20816;50.950;11.108;2024-01-25T00:42:15;99106.16;;;7.52;87.28
34586;BME280;20816;50.950;11.108;2024-01-25T00:44:42;99107.00;;;7.48;86.86
34586;BME280;20816;50.950;11.108;2024-01-25T00:47:09;99101.81;;;7.36;87.59
34586;BME280;20816;50.950;11.108;2024-01-25T00:49:36;99115.75;;;7.38;87.40
34586;BME280;20816;50.950;11.108;2024-01-25T00:52:03;99107.91;;;7.32;87.79
34586;BME280;20816;50.950;11.108;2024-01-25T00:54:31;99107.94;;;7.34;88.19
34586;BME280;20816;50.950;11.108;2024-01-25T00:56:58;99113.16;;;7.37;87.13
34586;BME280;20816;50.950;11.108;2024-01-25T00:59:25;99121.88;;;7.34;87.37
34586;BME280;20816;50.950;11.108;2024-01-25T01:01:53;99124.47;;;7.34;87.37
34586;BME280;20816;50.950;11.108;2024-01-25T01:04:22;99131.44;;;7.37;87.57
34586;BME280;20816;50.950;11.108;2024-01-25T01:06:49;99133.19;;;7.30;88.69
34586;BME280;20816;50.950;11.108;2024-01-25T01:09:16;99139.28;;;7.40;87.55
34586;BME280;20816;50.950;11.108;2024-01-25T01:11:44;99142.78;;;7.42;87.80
34586;BME280;20816;50.950;11.108;2024-01-25T01:14:11;99152.38;;;7.44;87.65
34586;BME280;20816;50.950;11.108;2024-01-25T01:16:37;99148.00;;;7.43;87.74
34586;BME280;20816;50.950;11.108;2024-01-25T01:19:04;99150.63;;;7.26;88.43
34586;BME280;20816;50.950;11.108;2024-01-25T01:21:34;99146.28;;;7.33;88.62
34586;BME280;20816;50.950;11.108;2024-01-25T01:24:02;99141.03;;;7.30;88.76
34586;BME280;20816;50.950;11.108;2024-01-25T01:26:29;99142.78;;;7.34;88.60
34586;BME280;20816;50.950;11.108;2024-01-25T01:28:56;99141.03;;;7.19;89.58
34586;BME280;20816;50.950;11.108;2024-01-25T01:31:22;99147.16;;;7.17;89.86
34586;BME280;20816;50.950;11.108;2024-01-25T01:33:49;99136.69;;;7.12;89.78
34586;BME280;20816;50.950;11.108;2024-01-25T01:36:16;99133.19;;;7.22;89.50
34586;BME280;20816;50.950;11.108;2024-01-25T01:38:43;99118.38;;;7.17;90.17
34586;BME280;20816;50.950;11.108;2024-01-25T01:41:10;99128.84;;;7.11;90.95
34586;BME280;20816;50.950;11.108;2024-01-25T01:43:39;99121.88;;;7.10;90.93
34586;BME280;20816;50.950;11.108;2024-01-25T01:48:56;99121.00;;;7.21;90.67
34586;BME280;20816;50.950;11.108;2024-01-25T01:51:23;99116.63;;;7.20;90.29
34586;BME280;20816;50.950;11.108;2024-01-25T01:53:51;99123.59;;;7.20;90.65
34586;BME280;20816;50.950;11.108;2024-01-25T01:56:18;99127.09;;;7.10;90.93
34586;BME280;20816;50.950;11.108;2024-01-25T01:58:47;99120.09;;;7.24;90.88
34586;BME280;20816;50.950;11.108;2024-01-25T02:01:14;99125.34;;;7.30;90.38
34586;BME280;20816;50.950;11.108;2024-01-25T02:03:41;99133.19;;;7.24;90.95
34586;BME280;20816;50.950;11.108;2024-01-25T02:06:08;99132.31;;;7.19;91.34
34586;BME280;20816;50.950;11.108;2024-01-25T02:08:35;99129.69;;;7.23;91.14
34586;BME280;20816;50.950;11.108;2024-01-25T02:11:02;99124.47;;;7.13;91.70
34586;BME280;20816;50.950;11.108;2024-01-25T02:13:28;99128.81;;;7.14;91.25
34586;BME280;20816;50.950;11.108;2024-01-25T02:15:55;99133.19;;;7.13;91.57
34586;BME280;20816;50.950;11.108;2024-01-25T02:18:22;99135.81;;;7.18;91.71
34586;BME280;20816;50.950;11.108;2024-01-25T02:20:49;99121.84;;;7.22;91.03
34586;BME280;20816;50.950;11.108;2024-01-25T02:23:16;99118.38;;;7.20;90.44
34586;BME280;20816;50.950;11.108;2024-01-25T02:25:42;99117.50;;;7.24;89.87
34586;BME280;20816;50.950;11.108;2024-01-25T02:28:09;99119.25;;;7.14;89.89
34586;BME280;20816;50.950;11.108;2024-01-25T02:30:36;99105.31;;;7.11;90.30
34586;BME280;20816;50.950;11.108;2024-01-25T02:33:02;99099.19;;;7.15;89.48
34586;BME280;20816;50.950;11.108;2024-01-25T02:35:30;99091.34;;;6.98;90.66
34586;BME280;20816;50.950;11.108;2024-01-25T02:37:56;99100.94;;;6.91;91.25
34586;BME280;20816;50.950;11.108;2024-01-25T02:40:23;99099.22;;;6.93;91.06
34586;BME280;20816;50.950;11.108;2024-01-25T02:42:50;99109.66;;;6.89;91.40
34586;BME280;20816;50.950;11.108;2024-01-25T02:45:17;99111.41;;;6.93;90.97
34586;BME280;20816;50.950;11.108;2024-01-25T02:47:44;99109.63;;;6.90;91.03
34586;BME280;20816;50.950;11.108;2024-01-25T02:50:10;99108.75;;;6.73;91.58
34586;BME280;20816;50.950;11.108;2024-01-25T02:52:37;99110.50;;;6.71;91.49
34586;BME280;20816;50.950;11.108;2024-01-25T02:55:04;99121.78;;;6.67;91.53
34586;BME280;20816;50.950;11.108;2024-01-25T02:57:30;99120.06;;;6.75;91.00
34586;BME280;20816;50.950;11.108;2024-01-25T02:59:58;99115.69;;;6.65;91.12
34586;BME280;20816;50.950;11.108;2024-01-25T03:02:24;99111.38;;;6.71;90.83
34586;BME280;20816;50.950;11.108;2024-01-25T03:04:51;99112.22;;;6.66;91.27
34586;BME280;20816;50.950;11.108;2024-01-25T03:07:18;99119.19;;;6.61;91.50
34586;BME280;20816;50.950;11.108;2024-01-25T03:09:45;99139.22;;;6.65;91.38
34586;BME280;20816;50.950;11.108;2024-01-25T03:12:11;99153.16;;;6.74;91.30
34586;BME280;20816;50.950;11.108;2024-01-25T03:14:38;99158.41;;;6.79;90.86
34586;BME280;20816;50.950;11.108;2024-01-25T03:17:05;99161.03;;;6.90;90.10
34586;BME280;20816;50.950;11.108;2024-01-25T03:19:32;99159.31;;;6.95;90.03
34586;BME280;20816;50.950;11.108;2024-01-25T03:21:59;99163.66;;;6.97;89.77
34586;BME280;20816;50.950;11.108;2024-01-25T03:24:28;99163.66;;;6.85;90.61
34586;BME280;20816;50.950;11.108;2024-01-25T03:26:55;99167.16;;;6.93;90.03
34586;BME280;20816;50.950;11.108;2024-01-25T03:29:22;99175.84;;;6.89;90.22
34586;BME280;20816;50.950;11.108;2024-01-25T03:31:48;99170.63;;;6.89;90.45
34586;BME280;20816;50.950;11.108;2024-01-25T03:34:16;99161.91;;;6.87;90.26
34586;BME280;20816;50.950;11.108;2024-01-25T03:36:43;99158.34;;;6.67;91.49
34586;BME280;20816;50.950;11.108;2024-01-25T03:39:10;99161.84;;;6.63;92.63
34586;BME280;20816;50.950;11.108;2024-01-25T03:41:37;99163.63;;;6.76;92.02
34586;BME280;20816;50.950;11.108;2024-01-25T03:44:03;99168.00;;;6.77;92.08
34586;BME280;20816;50.950;11.108;2024-01-25T03:46:30;99170.56;;;6.74;93.02
34586;BME280;20816;50.950;11.108;2024-01-25T03:48:57;99171.44;;;6.73;93.22
34586;BME280;20816;50.950;11.108;2024-01-25T03:51:24;99176.66;;;6.70;93.26
34586;BME280;20816;50.950;11.108;2024-01-25T03:53:50;99181.03;;;6.71;93.38
34586;BME280;20816;50.950;11.108;2024-01-25T03:56:19;99188.84;;;6.62;94.08
34586;BME280;20816;50.950;11.108;2024-01-25T03:58:46;99193.19;;;6.63;93.92
34586;BME280;20816;50.950;11.108;2024-01-25T04:01:13;99192.31;;;6.64;93.88
34586;BME280;20816;50.950;11.108;2024-01-25T04:03:40;99201.88;;;6.59;94.11
34586;BME280;20816;50.950;11.108;2024-01-25T04:06:08;99216.69;;;6.64;93.53
34586;BME280;20816;50.950;11.108;2024-01-25T04:08:35;99220.22;;;6.69;93.32
34586;BME280;20816;50.950;11.108;2024-01-25T04:11:02;99210.59;;;6.61;93.47
34586;BME280;20816;50.950;11.108;2024-01-25T04:13:28;99214.94;;;6.62;93.78
34586;BME280;20816;50.950;11.108;2024-01-25T04:15:55;99207.13;;;6.62;93.70
34586;BME280;20816;50.950;11.108;2024-01-25T04:18:22;99199.31;;;6.75;93.33
34586;BME280;20816;50.950;11.108;2024-01-25T04:20:49;99194.03;;;6.59;93.79
34586;BME280;20816;50.950;11.108;2024-01-25T04:23:17;99191.44;;;6.63;94.14
34586;BME280;20816;50.950;11.108;2024-01-25T04:25:44;99176.69;;;6.68;93.79
34586;BME280;20816;50.950;11.108;2024-01-25T04:28:11;99181.88;;;6.65;94.24
34586;BME280;20816;50.950;11.108;2024-01-25T04:30:37;99197.53;;;6.64;93.91
34586;BME280;20816;50.950;11.108;2024-01-25T04:33:05;99183.59;;;6.53;95.06
34586;BME280;20816;50.950;11.108;2024-01-25T04:35:32;99201.00;;;6.54;95.46
34586;BME280;20816;50.950;11.108;2024-01-25T04:37:59;99207.09;;;6.56;94.03
34586;BME280;20816;50.950;11.108;2024-01-25T04:40:25;99202.72;;;6.58;94.36
34586;BME280;20816;50.950;11.108;2024-01-25T04:42:53;99202.72;;;6.56;93.85
34586;BME280;20816;50.950;11.108;2024-01-25T04:45:19;99203.63;;;6.66;92.58
34586;BME280;20816;50.950;11.108;2024-01-25T04:47:46;99218.41;;;6.58;93.47
34586;BME280;20816;50.950;11.108;2024-01-25T04:50:13;99223.63;;;6.52;93.29
34586;BME280;20816;50.950;11.108;2024-01-25T04:52:40;99231.41;;;6.49;93.99
34586;BME280;20816;50.950;11.108;2024-01-25T04:55:07;99235.78;;;6.43;93.53
34586;BME280;20816;50.950;11.108;2024-01-25T04:57:34;99247.06;;;6.41;93.95
34586;BME280;20816;50.950;11.108;2024-01-25T05:00:00;99256.66;;;6.43;93.26
34586;BME280;20816;50.950;11.108;2024-01-25T05:02:27;99258.38;;;6.41;93.69
34586;BME280;20816;50.950;11.108;2024-01-25T05:04:54;99245.31;;;6.41;92.87
34586;BME280;20816;50.950;11.108;2024-01-25T05:07:20;99253.16;;;6.43;92.73
34586;BME280;20816;50.950;11.108;2024-01-25T05:09:56;99248.78;;;6.37;93.11
34586;BME280;20816;50.950;11.108;2024-01-25T05:12:22;99258.38;;;6.41;92.65
34586;BME280;20816;50.950;11.108;2024-01-25T05:14:49;99258.38;;;6.40;92.61
34586;BME280;20816;50.950;11.108;2024-01-25T05:17:16;99271.41;;;6.43;93.50
34586;BME280;20816;50.950;11.108;2024-01-25T05:19:43;99274.03;;;6.40;93.00
34586;BME280;20816;50.950;11.108;2024-01-25T05:22:09;99287.03;;;6.32;93.17
34586;BME280;20816;50.950;11.108;2024-01-25T05:24:36;99288.78;;;6.30;93.69
34586;BME280;20816;50.950;11.108;2024-01-25T05:27:03;99280.03;;;6.25;94.78
34586;BME280;20816;50.950;11.108;2024-01-25T05:29:30;99270.44;;;6.24;93.98
34586;BME280;20816;50.950;11.108;2024-01-25T05:31:57;99269.56;;;6.19;94.13
34586;BME280;20816;50.950;11.108;2024-01-25T05:34:24;99266.91;;;6.11;95.09
34586;BME280;20816;50.950;11.108;2024-01-25T05:36:51;99261.69;;;6.13;95.04
34586;BME280;20816;50.950;11.108;2024-01-25T05:39:18;99266.91;;;6.16;94.80
34586;BME280;20816;50.950;11.108;2024-01-25T05:41:45;99274.75;;;6.16;93.05
34586;BME280;20816;50.950;11.108;2024-01-25T05:44:12;99269.53;;;6.16;92.55
34586;BME280;20816;50.950;11.108;2024-01-25T05:46:39;99262.56;;;6.15;93.42
34586;BME280;20816;50.950;11.108;2024-01-25T05:49:06;99271.31;;;6.23;93.60
34586;BME280;20816;50.950;11.108;2024-01-25T05:51:33;99268.69;;;6.20;92.83
34586;BME280;20816;50.950;11.108;2024-01-25T05:54:00;99273.06;;;6.24;92.19
34586;BME280;20816;50.950;11.108;2024-01-25T05:56:27;99279.16;;;6.25;91.87
34586;BME280;20816;50.950;11.108;2024-01-25T05:58:53;99288.72;;;6.21;91.80
34586;BME280;20816;50.950;11.108;2024-01-25T06:01:20;99301.78;;;6.21;91.50
34586;BME280;20816;50.950;11.108;2024-01-25T06:03:47;99307.00;;;6.26;90.94
34586;BME280;20816;50.950;11.108;2024-01-25T06:06:14;99314.81;;;6.24;90.90
34586;BME280;20816;50.950;11.108;2024-01-25T06:08:40;99314.06;;;6.39;90.86
34586;BME280;20816;50.950;11.108;2024-01-25T06:11:10;99321.91;;;6.37;90.05
34586;BME280;20816;50.950;11.108;2024-01-25T06:13:37;99327.06;;;6.31;90.81
34586;BME280;20816;50.950;11.108;2024-01-25T06:16:04;99327.97;;;6.38;90.48
34586;BME280;20816;50.950;11.108;2024-01-25T06:18:31;99323.59;;;6.34;89.58
34586;BME280;20816;50.950;11.108;2024-01-25T06:20:58;99341.84;;;6.32;89.26
34586;BME280;20816;50.950;11.108;2024-01-25T06:23:25;99341.06;;;6.42;87.51
34586;BME280;20816;50.950;11.108;2024-01-25T06:25:52;99352.41;;;6.49;86.90
34586;BME280;20816;50.950;11.108;2024-01-25T06:28:18;99352.41;;;6.49;85.94
34586;BME280;20816;50.950;11.108;2024-01-25T06:30:46;99381.16;;;6.51;84.90
34586;BME280;20816;50.950;11.108;2024-01-25T06:33:13;99373.41;;;6.61;84.00
34586;BME280;20816;50.950;11.108;2024-01-25T06:35:39;99382.00;;;6.46;84.60
34586;BME280;20816;50.950;11.108;2024-01-25T06:38:06;99396.81;;;6.47;84.51
34586;BME280;20816;50.950;11.108;2024-01-25T06:40:33;99398.59;;;6.55;83.78
34586;BME280;20816;50.950;11.108;2024-01-25T06:43:00;99404.66;;;6.49;84.16
34586;BME280;20816;50.950;11.108;2024-01-25T06:45:27;99410.81;;;6.56;84.68
34586;BME280;20816;50.950;11.108;2024-01-25T06:47:53;99401.22;;;6.52;85.07
34586;BME280;20816;50.950;11.108;2024-01-25T06:50:20;99403.88;;;6.64;84.27
34586;BME280;20816;50.950;11.108;2024-01-25T06:52:47;99406.44;;;6.56;84.39
34586;BME280;20816;50.950;11.108;2024-01-25T06:55:14;99405.63;;;6.62;84.32
34586;BME280;20816;50.950;11.108;2024-01-25T06:57:41;99409.97;;;6.61;84.31
34586;BME280;20816;50.950;11.108;2024-01-25T07:00:08;99416.09;;;6.65;84.63
34586;BME280;20816;50.950;11.108;2024-01-25T07:02:38;99417.75;;;6.57;85.79
34586;BME280;20816;50.950;11.108;2024-01-25T07:05:05;99409.13;;;6.64;85.53
34586;BME280;20816;50.950;11.108;2024-01-25T07:07:32;99410.81;;;6.59;85.97
34586;BME280;20816;50.950;11.108;2024-01-25T07:09:59;99419.56;;;6.64;85.62
34586;BME280;20816;50.950;11.108;2024-01-25T07:12:27;99413.47;;;6.65;85.07
34586;BME280;20816;50.950;11.108;2024-01-25T07:14:53;99424.78;;;6.61;85.56
34586;BME280;20816;50.950;11.108;2024-01-25T07:17:21;99422.97;;;6.54;85.81
34586;BME280;20816;50.950;11.108;2024-01-25T07:19:47;99439.50;;;6.53;86.36
34586;BME280;20816;50.950;11.108;2024-01-25T07:22:14;99440.38;;;6.53;86.54
34586;BME280;20816;50.950;11.108;2024-01-25T07:24:44;99439.53;;;6.56;86.34
34586;BME280;20816;50.950;11.108;2024-01-25T07:27:11;99436.91;;;6.56;86.83
34586;BME280;20816;50.950;11.108;2024-01-25T07:29:37;99428.19;;;6.54;87.27
34586;BME280;20816;50.950;11.108;2024-01-25T07:32:04;99431.75;;;6.62;86.45
34586;BME280;20816;50.950;11.108;2024-01-25T07:34:31;99431.69;;;6.53;87.00
34586;BME280;20816;50.950;11.108;2024-01-25T07:36:58;99431.69;;;6.56;87.01
34586;BME280;20816;50.950;11.108;2024-01-25T07:39:25;99433.47;;;6.60;87.15
34586;BME280;20816;50.950;11.108;2024-01-25T07:41:52;99442.13;;;6.53;86.52
34586;BME280;20816;50.950;11.108;2024-01-25T07:44:19;99444.69;;;6.48;87.23
34586;BME280;20816;50.950;11.108;2024-01-25T07:46:46;99436.84;;;6.50;86.40
34586;BME280;20816;50.950;11.108;2024-01-25T07:49:13;99439.53;;;6.54;86.99
34586;BME280;20816;50.950;11.108;2024-01-25T07:51:40;99443.88;;;6.54;86.09
34586;BME280;20816;50.950;11.108;2024-01-25T07:54:07;99434.41;;;6.68;86.58
34586;BME280;20816;50.950;11.108;2024-01-25T07:56:34;99437.78;;;6.58;86.76
34586;BME280;20816;50.950;11.108;2024-01-25T07:59:00;99442.13;;;6.53;87.73
34586;BME280;20816;50.950;11.108;2024-01-25T08:01:27;99446.56;;;6.63;87.23
34586;BME280;20816;50.950;11.108;2024-01-25T08:03:54;99450.84;;;6.53;87.64
34586;BME280;20816;50.950;11.108;2024-01-25T08:06:22;99452.59;;;6.56;87.79
34586;BME280;20816;50.950;11.108;2024-01-25T08:08:49;99456.06;;;6.58;87.52
34586;BME280;20816;50.950;11.108;2024-01-25T08:11:16;99452.59;;;6.56;88.26
34586;BME280;20816;50.950;11.108;2024-01-25T08:13:46;99456.13;;;6.64;88.26
34586;BME280;20816;50.950;11.108;2024-01-25T08:16:14;99469.25;;;6.71;87.48
34586;BME280;20816;50.950;11.108;2024-01-25T08:18:47;99464.78;;;6.58;87.89
34586;BME280;20816;50.950;11.108;2024-01-25T08:21:14;99460.53;;;6.69;87.29
34586;BME280;20816;50.950;11.108;2024-01-25T08:23:41;99463.97;;;6.62;88.08
34586;BME280;20816;50.950;11.108;2024-01-25T08:26:08;99462.28;;;6.73;87.77
34586;BME280;20816;50.950;11.108;2024-01-25T08:28:40;99467.50;;;6.70;87.20
34586;BME280;20816;50.950;11.108;2024-01-25T08:31:07;99471.91;;;6.76;87.40
34586;BME280;20816;50.950;11.108;2024-01-25T08:33:34;99459.78;;;6.90;86.42
34586;BME280;20816;50.950;11.108;2024-01-25T08:36:02;99467.56;;;6.81;87.05
34586;BME280;20816;50.950;11.108;2024-01-25T08:38:29;99472.00;;;6.91;86.49
34586;BME280;20816;50.950;11.108;2024-01-25T08:40:56;99454.72;;;7.09;85.95
34586;BME280;20816;50.950;11.108;2024-01-25T08:43:22;99469.50;;;7.07;84.78
34586;BME280;20816;50.950;11.108;2024-01-25T08:45:49;99472.06;;;6.99;85.51
34586;BME280;20816;50.950;11.108;2024-01-25T08:48:16;99477.28;;;6.97;85.39
34586;BME280;20816;50.950;11.108;2024-01-25T08:50:44;99481.63;;;6.94;85.58
34586;BME280;20816;50.950;11.108;2024-01-25T08:53:11;99485.16;;;7.03;85.79
34586;BME280;20816;50.950;11.108;2024-01-25T08:55:38;99486.03;;;7.04;86.08
34586;BME280;20816;50.950;11.108;2024-01-25T08:58:05;99493.06;;;7.10;85.77
34586;BME280;20816;50.950;11.108;2024-01-25T09:00:32;99494.81;;;7.15;85.34
34586;BME280;20816;50.950;11.108;2024-01-25T09:02:59;99493.16;;;7.31;84.28
34586;BME280;20816;50.950;11.108;2024-01-25T09:05:26;99486.16;;;7.24;85.21
34586;BME280;20816;50.950;11.108;2024-01-25T09:07:55;99482.69;;;7.25;84.61
34586;BME280;20816;50.950;11.108;2024-01-25T09:10:22;99481.78;;;7.18;85.77
34586;BME280;20816;50.950;11.108;2024-01-25T09:12:49;99481.88;;;7.35;84.38
34586;BME280;20816;50.950;11.108;2024-01-25T09:15:16;99480.09;;;7.32;84.52
34586;BME280;20816;50.950;11.108;2024-01-25T09:17:43;99483.56;;;7.30;84.37
34586;BME280;20816;50.950;11.108;2024-01-25T09:20:12;99483.56;;;7.25;84.93
34586;BME280;20816;50.950;11.108;2024-01-25T09:22:44;99492.28;;;7.29;84.21
34586;BME280;20816;50.950;11.108;2024-01-25T09:25:11;99494.06;;;7.33;84.52
34586;BME280;20816;50.950;11.108;2024-01-25T09:27:38;99493.22;;;7.37;84.85
34586;BME280;20816;50.950;11.108;2024-01-25T09:30:06;99506.31;;;7.46;84.04
34586;BME280;20816;50.950;11.108;2024-01-25T09:32:33;99505.44;;;7.41;84.14
34586;BME280;20816;50.950;11.108;2024-01-25T09:35:00;99506.38;;;7.52;83.94
34586;BME280;20816;50.950;11.108;2024-01-25T09:37:27;99503.72;;;7.46;83.67
34586;BME280;20816;50.950;11.108;2024-01-25T09:39:54;99505.56;;;7.66;83.56
34586;BME280;20816;50.950;11.108;2024-01-25T09:42:21;99505.69;;;8.02;82.47
34586;BME280;20816;50.950;11.108;2024-01-25T09:44:47;99503.19;;;8.54;79.85
34586;BME280;20816;50.950;11.108;2024-01-25T09:47:14;99502.34;;;8.92;78.17
34586;BME280;20816;50.950;11.108;2024-01-25T09:49:43;99507.56;;;8.95;76.99
34586;BME280;20816;50.950;11.108;2024-01-25T09:52:12;99519.78;;;8.53;77.31
34586;BME280;20816;50.950;11.108;2024-01-25T09:54:40;99520.69;;;8.75;77.18
34586;BME280;20816;50.950;11.108;2024-01-25T09:57:21;99525.88;;;8.46;77.16
34586;BME280;20816;50.950;11.108;2024-01-25T09:59:49;99531.16;;;8.40;78.63
34586;BME280;20816;50.950;11.108;2024-01-25T10:02:17;99539.00;;;8.40;78.70
34586;BME280;20816;50.950;11.108;2024-01-25T10:04:50;99532.00;;;8.45;78.43
34586;BME280;20816;50.950;11.108;2024-01-25T10:07:40;99544.22;;;8.43;78.56
34586;BME280;20816;50.950;11.108;2024-01-25T10:10:08;99537.25;;;8.45;78.09
34586;BME280;20816;50.950;11.108;2024-01-25T10:12:40;99519.69;;;8.07;79.30
34586;BME280;20816;50.950;11.108;2024-01-25T10:15:08;99522.28;;;7.98;79.38
34586;BME280;20816;50.950;11.108;2024-01-25T10:17:35;99527.47;;;7.91;80.48
34586;BME280;20816;50.950;11.108;2024-01-25T10:20:21;99522.25;;;7.91;80.38
34586;BME280;20816;50.950;11.108;2024-01-25T10:22:51;99526.63;;;7.99;80.56
34586;BME280;20816;50.950;11.108;2024-01-25T10:25:21;99516.13;;;7.93;80.67
34586;BME280;20816;50.950;11.108;2024-01-25T10:27:49;99508.31;;;8.13;80.22
34586;BME280;20816;50.950;11.108;2024-01-25T10:30:16;99510.19;;;8.41;78.89
34586;BME280;20816;50.950;11.108;2024-01-25T10:32:45;99510.22;;;8.64;77.19
34586;BME280;20816;50.950;11.108;2024-01-25T10:35:14;99520.69;;;8.58;77.05
34586;BME280;20816;50.950;11.108;2024-01-25T10:37:42;99532.88;;;8.42;77.63
34586;BME280;20816;50.950;11.108;2024-01-25T10:40:10;99537.19;;;8.33;77.94
34586;BME280;20816;50.950;11.108;2024-01-25T10:42:37;99543.28;;;8.23;77.90
34586;BME280;20816;50.950;11.108;2024-01-25T10:45:04;99545.03;;;8.14;79.19
34586;BME280;20816;50.950;11.108;2024-01-25T10:47:32;99545.03;;;8.28;78.43
34586;BME280;20816;50.950;11.108;2024-01-25T10:50:02;99539.00;;;8.41;77.59
34586;BME280;20816;50.950;11.108;2024-01-25T10:52:30;99539.00;;;8.40;78.25
34586;BME280;20816;50.950;11.108;2024-01-25T10:54:58;99537.16;;;8.19;77.36
34586;BME280;20816;50.950;11.108;2024-01-25T10:57:24;99538.84;;;8.03;78.29
34586;BME280;20816;50.950;11.108;2024-01-25T10:59:51;99529.25;;;8.01;78.88
34586;BME280;20816;50.950;11.108;2024-01-25T11:02:18;99524.06;;;8.16;78.64
34586;BME280;20816;50.950;11.108;2024-01-25T11:04:54;99528.44;;;8.22;78.36
34586;BME280;20816;50.950;11.108;2024-01-25T11:07:22;99536.31;;;8.26;77.29
34586;BME280;20816;50.950;11.108;2024-01-25T11:09:52;99530.19;;;8.24;78.47
34586;BME280;20816;50.950;11.108;2024-01-25T11:12:20;99535.38;;;8.07;78.15
34586;BME280;20816;50.950;11.108;2024-01-25T11:14:54;99536.22;;;8.02;79.14
34586;BME280;20816;50.950;11.108;2024-01-25T11:17:22;99538.78;;;7.88;78.79
34586;BME280;20816;50.950;11.108;2024-01-25T11:19:49;99539.75;;;8.11;79.39
34586;BME280;20816;50.950;11.108;2024-01-25T11:22:17;99553.75;;;8.30;77.31
34586;BME280;20816;50.950;11.108;2024-01-25T11:24:45;99545.00;;;8.21;77.89
34586;BME280;20816;50.950;11.108;2024-01-25T11:27:13;99548.53;;;8.23;77.85
34586;BME280;20816;50.950;11.108;2024-01-25T11:29:41;99537.22;;;8.31;78.01
34586;BME280;20816;50.950;11.108;2024-01-25T11:32:11;99532.00;;;8.45;77.34
34586;BME280;20816;50.950;11.108;2024-01-25T11:34:38;99542.44;;;8.33;77.84
34586;BME280;20816;50.950;11.108;2024-01-25T11:37:05;99526.75;;;8.36;78.00
34586;BME280;20816;50.950;11.108;2024-01-25T11:39:32;99530.25;;;8.44;77.88
34586;BME280;20816;50.950;11.108;2024-01-25T11:41:59;99538.97;;;8.37;77.61
34586;BME280;20816;50.950;11.108;2024-01-25T11:44:26;99531.06;;;8.26;77.38
34586;BME280;20816;50.950;11.108;2024-01-25T11:46:55;99529.38;;;8.36;76.88
34586;BME280;20816;50.950;11.108;2024-01-25T11:49:26;99533.66;;;8.20;78.21
34586;BME280;20816;50.950;11.108;2024-01-25T11:51:53;99533.63;;;8.12;78.28
34586;BME280;20816;50.950;11.108;2024-01-25T11:54:20;99540.63;;;8.13;78.00
34586;BME280;20816;50.950;11.108;2024-01-25T11:56:47;99541.47;;;8.00;78.61
34586;BME280;20816;50.950;11.108;2024-01-25T11:59:14;99550.19;;;8.05;77.74
34586;BME280;20816;50.950;11.108;2024-01-25T12:01:41;99550.16;;;7.90;77.72
34586;BME280;20816;50.950;11.108;2024-01-25T12:04:09;99553.66;;;7.95;78.27
34586;BME280;20816;50.950;11.108;2024-01-25T12:06:36;99551.06;;;8.01;78.06
34586;BME280;20816;50.950;11.108;2024-01-25T12:09:10;99561.56;;;8.07;78.26
34586;BME280;20816;50.950;11.108;2024-01-25T12:11:40;99551.06;;;8.01;77.83
34586;BME280;20816;50.950;11.108;2024-01-25T12:14:09;99542.31;;;7.93;78.14
34586;BME280;20816;50.950;11.108;2024-01-25T12:16:37;99545.84;;;8.04;77.62
34586;BME280;20816;50.950;11.108;2024-01-25T12:19:05;99546.69;;;7.94;77.24
34586;BME280;20816;50.950;11.108;2024-01-25T12:21:33;99544.94;;;7.95;77.53
34586;BME280;20816;50.950;11.108;2024-01-25T12:24:01;99538.81;;;7.97;77.45
34586;BME280;20816;50.950;11.108;2024-01-25T12:26:34;99543.19;;;7.94;76.85
34586;BME280;20816;50.950;11.108;2024-01-25T12:29:01;99546.66;;;7.97;77.27
34586;BME280;20816;50.950;11.108;2024-01-25T12:31:29;99552.78;;;7.93;77.40
34586;BME280;20816;50.950;11.108;2024-01-25T12:33:56;99551.88;;;7.90;77.86
34586;BME280;20816;50.950;11.108;2024-01-25T12:36:24;99544.06;;;7.91;77.28
34586;BME280;20816;50.950;11.108;2024-01-25T12:38:51;99545.78;;;7.86;77.32
34586;BME280;20816;50.950;11.108;2024-01-25T12:41:18;99538.75;;;7.79;78.18
34586;BME280;20816;50.950;11.108;2024-01-25T12:43:45;99543.22;;;8.00;77.38
34586;BME280;20816;50.950;11.108;2024-01-25T12:46:11;99540.59;;;8.03;77.27
34586;BME280;20816;50.950;11.108;2024-01-25T12:48:52;99537.97;;;8.06;76.97
34586;BME280;20816;50.950;11.108;2024-01-25T12:51:23;99539.81;;;8.24;76.78
34586;BME280;20816;50.950;11.108;2024-01-25T12:53:50;99538.94;;;8.25;76.33
34586;BME280;20816;50.950;11.108;2024-01-25T12:56:17;99535.50;;;8.41;75.49
34586;BME280;20816;50.950;11.108;2024-01-25T12:58:44;99528.44;;;8.19;76.21
34586;BME280;20816;50.950;11.108;2024-01-25T13:01:11;99523.22;;;8.25;75.99
34586;BME280;20816;50.950;11.108;2024-01-25T13:03:41;99512.75;;;8.25;75.55